Pointe-Lebel, Canada
Current Conditions -  °F | °C
As of 9:00 AM on Wednesday 28 Jan 2015 (Local Time) from CYBC Reporting Station
Clear Clear  
Wind Chill: -10°   Ceiling: Unl
Heat Index:   Visibility: 9mi
Dew Point: -9°   Wind: 10mph
Humidity: 52%   Direction: 340°NNW
Pressure: 30.03"   Gusts: 20mph
Location:  49.15°N, 68.2°W
Report Text: CYBC 281400Z AUTO 34009G17KT 9SM CLR M15/M23 A3003 RMK WX MISG VIS MISG PCPN MISG SLP172
Loading
Personal Weather Stations






























Interactive Weather Map New forecast layout! Learn more

10-Day Weather Forecast

Advertisements
Track Severe Weather on mobile